createdAt,value
2023-03-02T00:00:48.878Z,0.00
2023-03-02T00:01:48.816Z,0.00
2023-03-02T00:02:48.987Z,0.00
2023-03-02T00:03:48.856Z,0.00
2023-03-02T00:04:48.804Z,0.00
2023-03-02T00:05:48.759Z,0.00
2023-03-02T00:06:48.833Z,0.00
2023-03-02T00:07:48.824Z,0.00
2023-03-02T00:08:48.715Z,0.00
2023-03-02T00:09:48.958Z,0.00
2023-03-02T00:10:48.698Z,0.00
2023-03-02T00:11:48.774Z,0.00
2023-03-02T00:12:48.760Z,0.00
2023-03-02T00:13:48.652Z,0.00
2023-03-02T00:14:48.804Z,0.00
2023-03-02T00:15:48.697Z,0.00
2023-03-02T00:16:48.720Z,0.00
2023-03-02T00:17:48.655Z,0.00
2023-03-02T00:18:48.574Z,0.00
2023-03-02T00:19:48.714Z,0.00
2023-03-02T00:20:48.630Z,0.00
2023-03-02T00:21:48.692Z,0.00
2023-03-02T00:22:53.259Z,0.00
2023-03-02T00:23:48.653Z,0.00
2023-03-02T00:24:48.503Z,0.00
2023-03-02T00:25:48.570Z,0.00
2023-03-02T00:26:48.500Z,0.00
2023-03-02T00:27:48.611Z,0.00
2023-03-02T00:28:48.422Z,0.00
2023-03-02T00:29:48.597Z,0.00
2023-03-02T00:30:48.404Z,0.00
2023-03-02T00:31:48.556Z,0.00
2023-03-02T00:32:48.420Z,0.00
2023-03-02T00:33:48.524Z,0.00
2023-03-02T00:34:48.362Z,0.00
2023-03-02T00:35:48.546Z,0.00
2023-03-02T00:36:48.409Z,0.00
2023-03-02T00:37:48.562Z,0.00
2023-03-02T00:38:48.441Z,0.00
2023-03-02T00:39:48.319Z,0.00
2023-03-02T00:40:48.442Z,0.00
2023-03-02T00:41:48.295Z,0.00
2023-03-02T00:42:48.461Z,0.00
2023-03-02T00:43:48.294Z,0.00
2023-03-02T00:44:48.488Z,0.00
2023-03-02T00:45:48.235Z,0.00
2023-03-02T00:46:48.336Z,0.00
2023-03-02T00:47:48.244Z,0.00
2023-03-02T00:48:48.286Z,0.00
2023-03-02T00:49:48.187Z,0.00
2023-03-02T00:50:48.322Z,0.00
2023-03-02T00:51:48.167Z,0.00
2023-03-02T00:52:48.396Z,0.00
2023-03-02T00:53:48.137Z,0.00
2023-03-02T00:54:48.327Z,0.00
2023-03-02T00:55:48.126Z,0.00
2023-03-02T00:56:48.140Z,0.00
2023-03-02T00:57:48.092Z,0.00
2023-03-02T00:58:48.196Z,0.00
2023-03-02T00:59:48.179Z,0.00
2023-03-02T01:00:48.035Z,0.00
2023-03-02T01:01:48.182Z,0.00
2023-03-02T01:02:48.194Z,0.00
2023-03-02T01:03:48.255Z,0.00
2023-03-02T01:04:48.203Z,0.00
2023-03-02T01:05:48.011Z,0.00
2023-03-02T01:06:48.012Z,0.00
2023-03-02T01:07:47.965Z,0.00
2023-03-02T01:08:48.072Z,0.00
2023-03-02T01:09:47.930Z,0.00
2023-03-02T01:10:48.042Z,0.00
2023-03-02T01:11:47.933Z,0.00
2023-03-02T01:12:48.055Z,0.00
2023-03-02T01:13:47.898Z,0.00
2023-03-02T01:14:48.113Z,0.00
2023-03-02T01:15:47.897Z,0.00
2023-03-02T01:16:48.087Z,0.00
2023-03-02T01:17:47.852Z,0.00
2023-03-02T01:18:47.897Z,0.00
2023-03-02T01:19:47.854Z,0.00
2023-03-02T01:20:47.905Z,0.00
2023-03-02T01:21:47.820Z,0.00
2023-03-02T01:22:47.917Z,0.00
2023-03-02T01:23:47.770Z,0.00
2023-03-02T01:24:47.881Z,0.00
2023-03-02T01:25:47.924Z,0.00
2023-03-02T01:26:47.709Z,0.00
2023-03-02T01:27:47.864Z,0.00
2023-03-02T01:28:49.446Z,0.00
2023-03-02T01:29:47.831Z,0.00
2023-03-02T01:30:47.824Z,0.00
2023-03-02T01:31:47.844Z,0.00
2023-03-02T01:32:47.778Z,0.00
2023-03-02T01:33:47.661Z,0.00
2023-03-02T01:34:47.849Z,0.00
2023-03-02T01:35:47.771Z,0.00
2023-03-02T01:36:47.598Z,0.00
2023-03-02T01:37:47.741Z,0.00
2023-03-02T01:38:47.620Z,0.00
2023-03-02T01:39:47.761Z,0.00
2023-03-02T01:40:47.586Z,0.00
2023-03-02T01:41:47.872Z,0.00
2023-03-02T01:42:47.547Z,0.00
2023-03-02T01:43:47.843Z,0.00
2023-03-02T01:44:47.540Z,0.00
2023-03-02T01:45:47.694Z,0.00
2023-03-02T01:46:47.534Z,0.00
2023-03-02T01:47:47.669Z,0.00
2023-03-02T01:48:47.426Z,0.00
2023-03-02T01:49:47.508Z,0.00
2023-03-02T01:50:47.412Z,0.00
2023-03-02T01:51:47.536Z,0.00
2023-03-02T01:52:47.403Z,0.00
2023-03-02T01:53:47.621Z,0.00
2023-03-02T01:54:47.355Z,0.00
2023-03-02T01:55:47.561Z,0.00
2023-03-02T01:56:47.331Z,0.00
2023-03-02T01:57:47.499Z,0.00
2023-03-02T01:58:47.342Z,0.00
2023-03-02T01:59:47.382Z,0.00
2023-03-02T02:00:47.348Z,0.00
2023-03-02T02:01:47.399Z,0.00
2023-03-02T02:02:47.268Z,0.00
2023-03-02T02:03:47.464Z,0.00
2023-03-02T02:04:47.268Z,0.00
2023-03-02T02:05:47.426Z,0.00
2023-03-02T02:06:47.293Z,0.00
2023-03-02T02:07:47.239Z,0.00
2023-03-02T02:08:47.370Z,0.00
2023-03-02T02:09:47.235Z,0.00
2023-03-02T02:10:47.232Z,0.00
2023-03-02T02:11:47.169Z,0.00
2023-03-02T02:12:47.265Z,0.00
2023-03-02T02:13:47.156Z,0.00
2023-03-02T02:14:47.206Z,0.00
2023-03-02T02:15:47.119Z,0.00
2023-03-02T02:16:47.296Z,0.00
2023-03-02T02:17:47.120Z,0.00
2023-03-02T02:18:47.201Z,0.00
2023-03-02T02:19:47.107Z,0.00
2023-03-02T02:20:47.233Z,0.00
2023-03-02T02:21:47.033Z,0.00
2023-03-02T02:22:47.207Z,0.00
2023-03-02T02:23:47.006Z,0.00
2023-03-02T02:24:47.176Z,0.00
2023-03-02T02:25:46.980Z,0.00
2023-03-02T02:26:47.066Z,0.00
2023-03-02T02:27:47.064Z,0.00
2023-03-02T02:28:46.923Z,0.00
2023-03-02T02:29:47.151Z,0.00
2023-03-02T02:30:46.892Z,0.00
2023-03-02T02:31:47.115Z,0.00
2023-03-02T02:32:47.025Z,0.00
2023-03-02T02:33:46.893Z,0.00
2023-03-02T02:34:47.123Z,0.00
2023-03-02T02:35:46.934Z,0.00
2023-03-02T02:36:46.946Z,0.00
2023-03-02T02:37:46.867Z,0.00
2023-03-02T02:38:46.913Z,0.00
2023-03-02T02:39:46.813Z,0.00
2023-03-02T02:40:46.931Z,0.00
2023-03-02T02:41:46.783Z,0.00
2023-03-02T02:42:46.902Z,0.00
2023-03-02T02:43:46.758Z,0.00
2023-03-02T02:44:46.865Z,0.00
2023-03-02T02:45:46.787Z,0.00
2023-03-02T02:46:46.771Z,0.00
2023-03-02T02:47:46.733Z,0.00
2023-03-02T02:48:46.786Z,0.00
2023-03-02T02:49:46.694Z,0.00
2023-03-02T02:50:46.811Z,0.00
2023-03-02T02:51:46.668Z,0.00
2023-03-02T02:52:46.818Z,0.00
2023-03-02T02:53:46.618Z,0.00
2023-03-02T02:54:46.888Z,0.00
2023-03-02T02:55:46.592Z,0.00
2023-03-02T02:56:46.650Z,0.00
2023-03-02T02:57:46.549Z,0.00
2023-03-02T02:58:46.666Z,0.00
2023-03-02T02:59:46.529Z,0.00
2023-03-02T03:00:46.688Z,0.00
2023-03-02T03:01:46.531Z,0.00
2023-03-02T03:02:46.705Z,0.00
2023-03-02T03:03:46.477Z,0.00
2023-03-02T03:04:46.777Z,0.00
2023-03-02T03:05:46.455Z,0.00
2023-03-02T03:06:46.578Z,0.00
2023-03-02T03:07:46.409Z,0.00
2023-03-02T03:08:46.551Z,0.00
2023-03-02T03:09:46.400Z,0.00
2023-03-02T03:10:46.650Z,0.00
2023-03-02T03:11:46.938Z,0.00
2023-03-02T03:12:46.654Z,0.00
2023-03-02T03:13:46.327Z,0.00
2023-03-02T03:14:46.482Z,0.00
2023-03-02T03:15:46.327Z,0.00
2023-03-02T03:16:46.568Z,0.00
2023-03-02T03:17:46.311Z,0.00
2023-03-02T03:18:46.455Z,0.00
2023-03-02T03:19:46.398Z,0.00
2023-03-02T03:20:46.292Z,0.00
2023-03-02T03:21:46.510Z,0.00
2023-03-02T03:22:46.259Z,0.00
2023-03-02T03:23:46.366Z,0.00
2023-03-02T03:24:46.462Z,0.00
2023-03-02T03:25:46.200Z,0.00
2023-03-02T03:26:46.446Z,0.00
2023-03-02T03:27:46.178Z,0.00
2023-03-02T03:28:46.272Z,0.00
2023-03-02T03:29:46.327Z,0.00
2023-03-02T03:30:46.201Z,0.00
2023-03-02T03:31:46.274Z,0.00
2023-03-02T03:32:46.145Z,0.00
2023-03-02T03:33:46.281Z,0.00
2023-03-02T03:34:46.129Z,0.00
2023-03-02T03:35:46.488Z,0.00
2023-03-02T03:36:46.079Z,0.00
2023-03-02T03:37:46.300Z,0.00
2023-03-02T03:38:46.059Z,0.00
2023-03-02T03:39:46.181Z,0.00
2023-03-02T03:40:46.030Z,0.00
2023-03-02T03:41:46.127Z,0.00
2023-03-02T03:42:46.015Z,0.00
2023-03-02T03:43:46.187Z,0.00
2023-03-02T03:44:45.993Z,0.00
2023-03-02T03:45:46.329Z,0.00
2023-03-02T03:46:45.954Z,0.00
2023-03-02T03:47:46.167Z,0.00
2023-03-02T03:48:45.922Z,0.00
2023-03-02T03:49:45.992Z,0.00
2023-03-02T03:50:46.054Z,0.00
2023-03-02T03:51:45.864Z,0.00
2023-03-02T03:52:46.038Z,0.00
2023-03-02T03:53:45.837Z,0.00
2023-03-02T03:54:46.022Z,0.00
2023-03-02T03:55:46.071Z,0.00
2023-03-02T03:56:45.819Z,0.00
2023-03-02T03:57:46.042Z,0.00
2023-03-02T03:58:45.828Z,0.00
2023-03-02T03:59:45.840Z,0.00
2023-03-02T04:00:45.775Z,0.00
2023-03-02T04:01:45.939Z,0.00
2023-03-02T04:02:45.818Z,0.00
2023-03-02T04:03:45.865Z,0.00
2023-03-02T04:04:45.715Z,0.00
2023-03-02T04:05:45.887Z,0.00
2023-03-02T04:06:45.712Z,0.00
2023-03-02T04:07:45.910Z,0.00
2023-03-02T04:08:45.659Z,0.00
2023-03-02T04:09:45.809Z,0.00
2023-03-02T04:10:45.635Z,0.00
2023-03-02T04:11:45.719Z,0.00
2023-03-02T04:12:45.656Z,0.00
2023-03-02T04:13:45.728Z,0.00
2023-03-02T04:14:45.591Z,0.00
2023-03-02T04:15:47.105Z,0.00
2023-03-02T04:16:45.672Z,0.00
2023-03-02T04:17:45.558Z,0.00
2023-03-02T04:18:45.699Z,0.00
2023-03-02T04:19:45.504Z,0.00
2023-03-02T04:20:45.707Z,0.00
2023-03-02T04:21:45.682Z,0.00
2023-03-02T04:22:45.484Z,0.00
2023-03-02T04:23:45.747Z,0.00
2023-03-02T04:24:45.442Z,0.00
2023-03-02T04:25:45.499Z,0.00
2023-03-02T04:26:45.436Z,0.00
2023-03-02T04:27:45.544Z,0.00
2023-03-02T04:28:45.440Z,0.00
2023-03-02T04:29:45.543Z,0.00
2023-03-02T04:30:45.415Z,0.00
2023-03-02T04:31:45.562Z,0.00
2023-03-02T04:32:45.381Z,0.00
2023-03-02T04:33:45.652Z,0.00
2023-03-02T04:34:45.347Z,0.00
2023-03-02T04:35:45.625Z,0.00
2023-03-02T04:36:45.323Z,0.00
2023-03-02T04:37:45.403Z,0.00
2023-03-02T04:38:45.317Z,0.00
2023-03-02T04:39:45.450Z,0.00
2023-03-02T04:40:45.260Z,0.00
2023-03-02T04:41:45.336Z,0.00
2023-03-02T04:42:45.247Z,0.00
2023-03-02T04:43:45.376Z,0.00
2023-03-02T04:44:45.265Z,0.00
2023-03-02T04:45:45.352Z,0.00
2023-03-02T04:46:45.228Z,0.00
2023-03-02T04:47:45.277Z,0.00
2023-03-02T04:48:45.172Z,0.00
2023-03-02T04:49:45.355Z,0.00
2023-03-02T04:50:45.140Z,0.00
2023-03-02T04:51:45.209Z,0.00
2023-03-02T04:52:45.118Z,0.00
2023-03-02T04:53:45.242Z,0.00
2023-03-02T04:54:45.149Z,0.00
2023-03-02T04:55:45.384Z,0.00
2023-03-02T04:56:45.221Z,0.00
2023-03-02T04:57:45.301Z,0.00
2023-03-02T04:58:45.104Z,0.00
2023-03-02T04:59:45.214Z,0.00
2023-03-02T05:00:44.998Z,0.00
2023-03-02T05:01:45.171Z,0.00
2023-03-02T05:02:45.165Z,0.00
2023-03-02T05:03:45.195Z,0.00
2023-03-02T05:04:45.217Z,0.00
2023-03-02T05:05:45.257Z,0.00
2023-03-02T05:06:45.105Z,0.00
2023-03-02T05:07:45.186Z,0.00
2023-03-02T05:08:45.229Z,0.00
2023-03-02T05:09:44.928Z,0.00
2023-03-02T05:10:45.046Z,0.00
2023-03-02T05:11:44.871Z,0.00
2023-03-02T05:12:45.055Z,0.00
2023-03-02T05:13:44.948Z,0.00
2023-03-02T05:14:45.784Z,0.00
2023-03-02T05:15:45.101Z,0.00
2023-03-02T05:16:44.840Z,0.00
2023-03-02T05:17:44.910Z,0.00
2023-03-02T05:18:44.792Z,0.00
2023-03-02T05:19:44.890Z,0.00
2023-03-02T05:20:44.758Z,0.00
2023-03-02T05:21:44.926Z,0.00
2023-03-02T05:22:44.758Z,0.00
2023-03-02T05:23:44.846Z,0.00
2023-03-02T05:24:44.728Z,0.00
2023-03-02T05:25:44.827Z,0.00
2023-03-02T05:26:44.706Z,0.00
2023-03-02T05:27:45.286Z,0.00
2023-03-02T05:28:44.703Z,0.00
2023-03-02T05:29:44.849Z,0.00
2023-03-02T05:30:44.630Z,0.00
2023-03-02T05:31:44.947Z,0.00
2023-03-02T05:32:44.634Z,0.00
2023-03-02T05:33:44.676Z,0.00
2023-03-02T05:34:44.696Z,0.00
2023-03-02T05:35:44.660Z,0.00
2023-03-02T05:36:44.709Z,0.00
2023-03-02T05:37:44.546Z,0.00
2023-03-02T05:38:44.767Z,0.00
2023-03-02T05:39:44.500Z,0.00
2023-03-02T05:40:44.627Z,0.00
2023-03-02T05:41:44.500Z,0.00
2023-03-02T05:42:44.649Z,0.00
2023-03-02T05:43:44.453Z,0.00
2023-03-02T05:44:44.636Z,0.00
2023-03-02T05:45:44.437Z,4.00
2023-03-02T05:46:44.625Z,0.00
2023-03-02T05:47:44.409Z,4.00
2023-03-02T05:48:44.586Z,4.00
2023-03-02T05:49:44.369Z,8.00
2023-03-02T05:50:44.560Z,4.00
2023-03-02T05:51:44.359Z,4.00
2023-03-02T05:52:44.526Z,4.00
2023-03-02T05:53:44.332Z,8.00
2023-03-02T05:54:44.541Z,8.00
2023-03-02T05:55:44.368Z,8.00
2023-03-02T05:56:44.678Z,8.00
2023-03-02T05:57:44.275Z,12.00
2023-03-02T05:58:44.442Z,16.00
2023-03-02T05:59:44.282Z,16.00
2023-03-02T06:00:44.483Z,16.00
2023-03-02T06:01:44.357Z,16.00
2023-03-02T06:02:44.398Z,20.00
2023-03-02T06:03:44.233Z,20.00
2023-03-02T06:04:44.394Z,24.00
2023-03-02T06:05:44.210Z,28.00
2023-03-02T06:06:44.363Z,28.00
2023-03-02T06:07:44.148Z,32.00
2023-03-02T06:08:44.314Z,36.00
2023-03-02T06:09:44.126Z,36.00
2023-03-02T06:10:44.335Z,36.00
2023-03-02T06:11:44.104Z,40.00
2023-03-02T06:12:44.414Z,44.00
2023-03-02T06:13:44.108Z,48.00
2023-03-02T06:14:44.375Z,52.00
2023-03-02T06:15:44.058Z,56.00
2023-03-02T06:16:44.205Z,60.00
2023-03-02T06:17:44.048Z,64.00
2023-03-02T06:18:44.193Z,68.00
2023-03-02T06:19:43.999Z,72.00
2023-03-02T06:20:44.195Z,72.00
2023-03-02T06:21:43.998Z,80.00
2023-03-02T06:22:44.203Z,80.00
2023-03-02T06:23:43.958Z,88.00
2023-03-02T06:24:44.119Z,92.00
2023-03-02T06:25:43.930Z,100.00
2023-03-02T06:26:44.046Z,108.00
2023-03-02T06:27:43.917Z,112.00
2023-03-02T06:28:52.645Z,120.00
2023-03-02T06:29:43.882Z,124.00
2023-03-02T06:30:44.069Z,136.00
2023-03-02T06:31:44.119Z,148.00
2023-03-02T06:32:43.926Z,152.00
2023-03-02T06:33:44.108Z,164.00
2023-03-02T06:34:43.838Z,180.00
2023-03-02T06:35:44.071Z,188.00
2023-03-02T06:36:44.062Z,192.00
2023-03-02T06:37:44.482Z,200.00
2023-03-02T06:38:44.010Z,208.00
2023-03-02T06:39:43.782Z,228.00
2023-03-02T06:40:44.050Z,216.00
2023-03-02T06:41:43.742Z,220.00
2023-03-02T06:42:44.160Z,232.00
2023-03-02T06:43:43.750Z,240.00
2023-03-02T06:44:43.900Z,228.00
2023-03-02T06:45:43.774Z,224.00
2023-03-02T06:46:43.881Z,244.00
2023-03-02T06:47:49.732Z,264.00
2023-03-02T06:48:43.729Z,272.00
2023-03-02T06:49:43.616Z,284.00
2023-03-02T06:50:43.769Z,284.00
2023-03-02T06:51:43.618Z,296.00
2023-03-02T06:52:43.726Z,308.00
2023-03-02T06:53:43.649Z,292.00
2023-03-02T06:54:43.645Z,316.00
2023-03-02T06:55:43.538Z,332.00
2023-03-02T06:56:43.627Z,316.00
2023-03-02T06:57:43.537Z,328.00
2023-03-02T06:58:43.535Z,360.00
2023-03-02T06:59:43.537Z,348.00
2023-03-02T07:00:43.511Z,352.00
2023-03-02T07:01:43.646Z,328.00
2023-03-02T07:02:43.487Z,328.00
2023-03-02T07:03:43.514Z,328.00
2023-03-02T07:04:43.453Z,352.00
2023-03-02T07:05:45.993Z,368.00
2023-03-02T07:06:43.475Z,356.00
2023-03-02T07:07:43.510Z,372.00
2023-03-02T07:08:43.388Z,392.00
2023-03-02T07:09:43.552Z,408.00
2023-03-02T07:10:43.430Z,396.00
2023-03-02T07:11:43.556Z,400.00
2023-03-02T07:12:43.346Z,404.00
2023-03-02T07:13:43.456Z,412.00
2023-03-02T07:14:43.334Z,424.00
2023-03-02T07:15:43.412Z,412.00
2023-03-02T07:16:43.416Z,400.00
2023-03-02T07:17:43.393Z,412.00
2023-03-02T07:18:43.354Z,420.00
2023-03-02T07:19:43.314Z,428.00
2023-03-02T07:20:43.276Z,432.00
2023-03-02T07:21:43.238Z,448.00
2023-03-02T07:22:43.248Z,452.00
2023-03-02T07:23:43.232Z,464.00
2023-03-02T07:24:44.976Z,500.00
2023-03-02T07:25:43.256Z,500.00
2023-03-02T07:26:43.186Z,520.00
2023-03-02T07:27:43.310Z,564.00
2023-03-02T07:28:43.146Z,560.00
2023-03-02T07:29:43.231Z,608.00
2023-03-02T07:30:43.162Z,596.00
2023-03-02T07:31:43.260Z,656.00
2023-03-02T07:32:43.143Z,652.00
2023-03-02T07:33:43.348Z,612.00
2023-03-02T07:34:43.052Z,628.00
2023-03-02T07:35:43.166Z,648.00
2023-03-02T07:36:43.037Z,664.00
2023-03-02T07:37:43.130Z,636.00
2023-03-02T07:38:43.030Z,652.00
2023-03-02T07:39:43.130Z,648.00
2023-03-02T07:40:42.996Z,656.00
2023-03-02T07:41:43.070Z,644.00
2023-03-02T07:42:42.980Z,648.00
2023-03-02T07:43:43.092Z,640.00
2023-03-02T07:44:42.931Z,652.00
2023-03-02T07:45:43.071Z,640.00
2023-03-02T07:46:43.041Z,648.00
2023-03-02T07:47:42.991Z,656.00
2023-03-02T07:48:42.884Z,664.00
2023-03-02T07:49:43.052Z,668.00
2023-03-02T07:50:42.885Z,712.00
2023-03-02T07:51:42.890Z,736.00
2023-03-02T07:52:42.824Z,716.00
2023-03-02T07:53:43.008Z,708.00
2023-03-02T07:54:42.866Z,764.00
2023-03-02T07:55:42.821Z,776.00
2023-03-02T07:56:42.863Z,764.00
2023-03-02T07:57:42.784Z,788.00
2023-03-02T07:58:42.821Z,856.00
2023-03-02T07:59:42.788Z,924.00
2023-03-02T08:00:42.854Z,908.00
2023-03-02T08:01:42.810Z,896.00
2023-03-02T08:02:42.795Z,920.00
2023-03-02T08:03:42.762Z,928.00
2023-03-02T08:04:42.688Z,940.00
2023-03-02T08:05:42.803Z,964.00
2023-03-02T08:06:42.808Z,1028.00
2023-03-02T08:07:42.821Z,1052.00
2023-03-02T08:08:42.727Z,1148.00
2023-03-02T08:09:42.630Z,1116.00
2023-03-02T08:10:42.784Z,1080.00
2023-03-02T08:11:42.612Z,1076.00
2023-03-02T08:12:42.624Z,1032.00
2023-03-02T08:13:42.605Z,1004.00
2023-03-02T08:14:42.655Z,980.00
2023-03-02T08:15:42.702Z,1012.00
2023-03-02T08:16:42.706Z,1100.00
2023-03-02T08:17:42.663Z,1132.00
2023-03-02T08:18:42.507Z,1100.00
2023-03-02T08:19:42.676Z,1160.00
2023-03-02T08:20:42.497Z,1140.00
2023-03-02T08:21:42.650Z,1148.00
2023-03-02T08:22:42.451Z,1200.00
2023-03-02T08:23:42.552Z,1180.00
2023-03-02T08:24:42.433Z,1216.00
2023-03-02T08:25:42.513Z,1308.00
2023-03-02T08:26:42.646Z,1416.00
2023-03-02T08:27:42.948Z,1504.00
2023-03-02T08:28:42.380Z,1568.00
2023-03-02T08:29:42.540Z,1432.00
2023-03-02T08:30:42.357Z,1368.00
2023-03-02T08:31:42.514Z,1328.00
2023-03-02T08:32:42.448Z,1348.00
2023-03-02T08:33:42.404Z,1396.00
2023-03-02T08:34:42.412Z,1376.00
2023-03-02T08:35:42.578Z,1328.00
2023-03-02T08:36:42.315Z,1384.00
2023-03-02T08:37:42.457Z,1424.00
2023-03-02T08:38:42.250Z,1476.00
2023-03-02T08:39:42.327Z,1484.00
2023-03-02T08:40:42.221Z,1508.00
2023-03-02T08:41:42.330Z,1412.00
2023-03-02T08:42:42.311Z,1344.00
2023-03-02T08:43:42.418Z,1320.00
2023-03-02T08:44:42.174Z,1320.00
2023-03-02T08:45:42.448Z,1348.00
2023-03-02T08:46:42.873Z,1396.00
2023-03-02T08:47:42.362Z,1404.00
2023-03-02T08:48:42.245Z,1412.00
2023-03-02T08:49:43.073Z,1448.00
2023-03-02T08:50:42.530Z,1428.00
2023-03-02T08:51:42.650Z,1444.00
2023-03-02T08:52:42.493Z,1432.00
2023-03-02T08:53:42.889Z,1472.00
2023-03-02T08:54:42.506Z,1500.00
2023-03-02T08:55:43.169Z,1564.00
2023-03-02T08:56:42.029Z,1532.00
2023-03-02T08:57:43.063Z,1480.00
2023-03-02T08:58:42.208Z,1540.00
2023-03-02T08:59:42.307Z,1600.00
2023-03-02T09:00:42.455Z,1604.00
2023-03-02T09:01:42.268Z,1592.00
2023-03-02T09:02:42.453Z,1580.00
2023-03-02T09:03:42.472Z,1564.00
2023-03-02T09:04:41.954Z,1536.00
2023-03-02T09:05:41.974Z,1516.00
2023-03-02T09:06:41.886Z,1520.00
2023-03-02T09:07:42.135Z,1556.00
2023-03-02T09:08:42.793Z,1588.00
2023-03-02T09:09:42.090Z,1548.00
2023-03-02T09:10:41.839Z,1516.00
2023-03-02T09:11:42.006Z,1544.00
2023-03-02T09:12:41.822Z,1560.00
2023-03-02T09:13:41.922Z,1604.00
2023-03-02T09:14:41.819Z,1656.00
2023-03-02T09:15:41.918Z,1784.00
2023-03-02T09:16:41.784Z,1824.00
2023-03-02T09:17:42.035Z,1732.00
2023-03-02T09:18:41.779Z,1680.00
2023-03-02T09:19:44.298Z,1676.00
2023-03-02T09:20:41.792Z,1744.00
2023-03-02T09:21:41.911Z,1788.00
2023-03-02T09:22:41.688Z,1804.00
2023-03-02T09:23:41.968Z,1800.00
2023-03-02T09:24:41.702Z,1816.00
2023-03-02T09:25:41.948Z,1764.00
2023-03-02T09:26:41.673Z,1728.00
2023-03-02T09:27:41.735Z,1716.00
2023-03-02T09:28:41.747Z,1784.00
2023-03-02T09:29:41.670Z,1844.00
2023-03-02T09:30:41.957Z,1896.00
2023-03-02T09:31:41.628Z,1984.00
2023-03-02T09:32:41.919Z,1996.00
2023-03-02T09:33:41.681Z,2044.00
2023-03-02T09:34:41.557Z,2060.00
2023-03-02T09:35:41.684Z,2008.00
2023-03-02T09:36:41.576Z,1952.00
2023-03-02T09:37:44.202Z,2020.00
2023-03-02T09:38:41.500Z,2068.00
2023-03-02T09:39:41.652Z,2068.00
2023-03-02T09:40:41.445Z,2052.00
2023-03-02T09:41:41.695Z,2088.00
2023-03-02T09:42:44.254Z,2116.00
2023-03-02T09:43:41.626Z,2144.00
2023-03-02T09:44:41.418Z,2152.00
2023-03-02T09:45:41.563Z,2092.00
2023-03-02T09:46:41.455Z,2124.00
2023-03-02T09:47:41.499Z,2012.00
2023-03-02T09:48:41.412Z,1916.00
2023-03-02T09:49:41.467Z,1892.00
2023-03-02T09:50:41.456Z,1940.00
2023-03-02T09:51:41.564Z,2040.00
2023-03-02T09:52:41.368Z,2180.00
2023-03-02T09:53:41.587Z,2208.00
2023-03-02T09:54:41.717Z,2244.00
2023-03-02T09:55:41.370Z,2228.00
2023-03-02T09:56:41.599Z,2332.00
2023-03-02T09:57:41.720Z,2328.00
2023-03-02T09:58:41.328Z,2232.00
2023-03-02T09:59:41.357Z,2220.00
2023-03-02T10:00:41.247Z,2136.00
2023-03-02T10:01:41.358Z,2012.00
2023-03-02T10:02:41.219Z,1928.00
2023-03-02T10:03:41.565Z,1908.00
2023-03-02T10:04:41.212Z,1932.00
2023-03-02T10:05:41.659Z,2092.00
2023-03-02T10:06:41.172Z,2248.00
2023-03-02T10:07:41.424Z,2340.00
2023-03-02T10:08:41.212Z,2340.00
2023-03-02T10:09:41.214Z,2300.00
2023-03-02T10:10:41.174Z,2280.00
2023-03-02T10:11:41.207Z,2300.00
2023-03-02T10:12:41.040Z,2360.00
2023-03-02T10:13:41.665Z,2516.00
2023-03-02T10:14:41.042Z,2700.00
2023-03-02T10:15:41.270Z,2776.00
2023-03-02T10:16:41.125Z,2792.00
2023-03-02T10:17:41.248Z,2700.00
2023-03-02T10:18:41.020Z,2672.00
2023-03-02T10:19:41.106Z,2752.00
2023-03-02T10:20:41.066Z,2844.00
2023-03-02T10:21:40.973Z,2940.00
2023-03-02T10:22:41.090Z,3068.00
2023-03-02T10:23:41.023Z,3008.00
2023-03-02T10:24:40.993Z,2840.00
2023-03-02T10:25:41.242Z,2904.00
2023-03-02T10:26:40.901Z,3028.00
2023-03-02T10:27:41.024Z,3068.00
2023-03-02T10:28:40.892Z,3064.00
2023-03-02T10:29:40.998Z,2908.00
2023-03-02T10:30:40.869Z,2760.00
2023-03-02T10:31:40.933Z,2672.00
2023-03-02T10:32:40.820Z,2608.00
2023-03-02T10:33:41.064Z,2560.00
2023-03-02T10:34:40.808Z,2500.00
2023-03-02T10:35:40.927Z,2436.00
2023-03-02T10:36:40.759Z,2464.00
2023-03-02T10:37:40.994Z,2568.00
2023-03-02T10:38:40.839Z,2688.00
2023-03-02T10:39:40.881Z,2596.00
2023-03-02T10:40:40.725Z,2456.00
2023-03-02T10:41:41.254Z,2356.00
2023-03-02T10:42:40.715Z,2364.00
2023-03-02T10:43:40.928Z,2404.00
2023-03-02T10:44:40.848Z,2380.00
2023-03-02T10:45:40.806Z,2388.00
2023-03-02T10:46:41.603Z,2320.00
2023-03-02T10:47:41.091Z,2352.00
2023-03-02T10:48:41.231Z,2372.00
2023-03-02T10:49:40.766Z,2356.00
2023-03-02T10:50:41.093Z,2264.00
2023-03-02T10:51:41.124Z,2216.00
2023-03-02T10:52:44.206Z,2208.00
2023-03-02T10:53:40.842Z,2188.00
2023-03-02T10:54:41.521Z,2132.00
2023-03-02T10:55:41.211Z,2088.00
2023-03-02T10:56:40.833Z,2064.00
2023-03-02T10:57:41.320Z,2060.00
2023-03-02T10:58:41.164Z,2112.00
2023-03-02T10:59:40.863Z,2184.00
2023-03-02T11:00:41.110Z,2208.00
2023-03-02T11:01:41.130Z,2208.00
2023-03-02T11:02:41.027Z,2228.00
2023-03-02T11:03:41.004Z,2184.00
2023-03-02T11:04:41.035Z,2144.00
2023-03-02T11:05:41.497Z,2120.00
2023-03-02T11:06:41.414Z,2084.00
2023-03-02T11:07:40.620Z,2100.00
2023-03-02T11:08:40.623Z,2108.00
2023-03-02T11:09:40.678Z,2064.00
2023-03-02T11:10:40.427Z,2008.00
2023-03-02T11:11:40.339Z,1980.00
2023-03-02T11:12:40.455Z,1956.00
2023-03-02T11:13:40.353Z,1940.00
2023-03-02T11:14:40.532Z,1872.00
2023-03-02T11:15:40.336Z,1832.00
2023-03-02T11:16:40.478Z,1860.00
2023-03-02T11:17:40.510Z,1924.00
2023-03-02T11:18:40.649Z,1908.00
2023-03-02T11:19:40.244Z,1856.00
2023-03-02T11:20:40.515Z,1796.00
2023-03-02T11:21:40.281Z,1736.00
2023-03-02T11:22:40.377Z,1720.00
2023-03-02T11:23:40.230Z,1708.00
2023-03-02T11:24:40.313Z,1740.00
2023-03-02T11:25:40.123Z,1800.00
2023-03-02T11:26:40.327Z,1884.00
2023-03-02T11:27:40.096Z,1932.00
2023-03-02T11:28:40.406Z,1952.00
2023-03-02T11:29:40.115Z,1940.00
2023-03-02T11:30:40.234Z,1912.00
2023-03-02T11:31:40.203Z,1896.00
2023-03-02T11:32:40.250Z,1880.00
2023-03-02T11:33:40.091Z,1872.00
2023-03-02T11:34:40.192Z,1904.00
2023-03-02T11:35:40.046Z,1964.00
2023-03-02T11:36:40.281Z,2020.00
2023-03-02T11:37:40.011Z,2064.00
2023-03-02T11:38:40.129Z,2112.00
2023-03-02T11:39:46.561Z,2136.00
2023-03-02T11:40:41.814Z,2160.00
2023-03-02T11:41:40.145Z,2192.00
2023-03-02T11:42:40.009Z,2196.00
2023-03-02T11:43:40.115Z,1280.00
2023-03-02T11:44:39.975Z,2272.00
2023-03-02T11:45:40.395Z,2312.00
2023-03-02T11:46:39.965Z,2420.00
2023-03-02T11:47:39.943Z,2540.00
2023-03-02T11:48:39.961Z,2604.00
2023-03-02T11:49:39.855Z,2604.00
2023-03-02T11:50:39.976Z,2712.00
2023-03-02T11:51:44.660Z,2748.00
2023-03-02T11:52:39.817Z,2592.00
2023-03-02T11:53:39.898Z,2492.00
2023-03-02T11:54:39.798Z,2560.00
2023-03-02T11:55:39.932Z,2644.00
2023-03-02T11:56:39.758Z,2648.00
2023-03-02T11:57:39.923Z,2648.00
2023-03-02T11:58:39.795Z,2640.00
2023-03-02T11:59:39.856Z,2688.00
2023-03-02T12:00:39.750Z,2720.00
2023-03-02T12:01:39.874Z,2700.00
2023-03-02T12:02:39.739Z,2652.00
2023-03-02T12:03:39.733Z,2632.00
2023-03-02T12:04:39.969Z,2588.00
2023-03-02T12:05:39.739Z,2504.00
2023-03-02T12:06:40.921Z,2460.00
2023-03-02T12:07:39.604Z,2440.00
2023-03-02T12:08:39.932Z,2476.00
2023-03-02T12:09:39.703Z,2500.00
2023-03-02T12:10:39.761Z,2476.00
2023-03-02T12:11:39.786Z,2508.00
2023-03-02T12:12:40.464Z,2532.00
2023-03-02T12:13:39.725Z,2564.00
2023-03-02T12:14:40.048Z,2556.00
2023-03-02T12:15:39.604Z,2684.00
2023-03-02T12:16:39.990Z,2812.00
2023-03-02T12:17:39.615Z,2716.00
2023-03-02T12:18:39.878Z,2688.00
2023-03-02T12:19:39.468Z,2956.00
2023-03-02T12:20:39.765Z,3192.00
2023-03-02T12:21:39.718Z,3056.00
2023-03-02T12:22:39.847Z,2784.00
2023-03-02T12:23:39.612Z,2736.00
2023-03-02T12:24:39.710Z,2792.00
2023-03-02T12:25:39.602Z,2840.00
2023-03-02T12:26:40.514Z,2804.00
2023-03-02T12:27:39.907Z,2744.00
2023-03-02T12:28:39.721Z,2756.00
2023-03-02T12:29:39.655Z,2872.00
2023-03-02T12:30:39.689Z,2940.00
2023-03-02T12:31:39.462Z,2828.00
2023-03-02T12:32:39.848Z,2648.00
2023-03-02T12:33:39.863Z,2636.00
2023-03-02T12:34:39.673Z,2700.00
2023-03-02T12:35:39.683Z,2832.00
2023-03-02T12:36:39.357Z,3008.00
2023-03-02T12:37:39.529Z,3000.00
2023-03-02T12:38:39.654Z,2944.00
2023-03-02T12:39:39.382Z,2904.00
2023-03-02T12:40:39.308Z,2892.00
2023-03-02T12:41:39.415Z,2912.00
2023-03-02T12:42:39.332Z,2968.00
2023-03-02T12:43:39.585Z,2940.00